Atlantis — PCDT — position and weather

sailwx.info

Track history (hours):
 
Tides and Currents Weather Stations Pressure Air Temp Water Temp Dewpoint Dewpoint Depression Visibility Wind Speed Wind Dir Waves Ship Positions

Atlantis (Netherlands)

Ship's website: http://www.tallship-company.com/artemis/gb_atlantis.htm

Last reported at 2015-Aug-27 20:33 UTC. Time now 2015-Aug-27 21:31 UTC.
Position N 51°12' E 001°40'.

Length 40 m; draft 4.9 m.

Type: Sailing vessel. MMSI: 246253000.

Date/timePositionNaut miles runAvg speedWind from/ knotsBaromVisibWave heightAir tempDewpointWater temp
2015-Aug-27 20:33N 51°12' E 001°40'3 3.2
2015-Aug-27 19:33N 51°14' E 001°44'5 5.1
2015-Aug-27 18:33N 51°18' E 001°49'6 6.1
2015-Aug-27 17:33N 51°24' E 001°52'6 5.9
2015-Aug-27 16:33N 51°29' E 001°56'5 5.4
2015-Aug-27 15:33N 51°35' E 001°58'19 3.7
2015-Aug-27 10:31N 51°52' E 002°06'4 4.2
2015-Aug-27 09:33N 51°56' E 002°08'61 4.0
2015-Aug-26 18:17N 52°05' E 003°46'2 3.4
2015-Aug-26 17:33N 52°03' E 003°50'7 7.0
2015-Aug-26 16:33N 52°05' E 004°01'7 7.4
2015-Aug-26 15:33N 52°06' E 004°13'2 1.8
2015-Aug-26 14:31N 52°06' E 004°16'0 0.0
2015-Aug-26 13:31N 52°06' E 004°16'0 0.0
2015-Aug-26 12:31N 52°06' E 004°16'0 0.0
2015-Aug-26 11:31N 52°06' E 004°16'0 0.0
2015-Aug-26 10:31N 52°06' E 004°16'0 0.0
2015-Aug-26 09:31N 52°06' E 004°16'0 0.0
2015-Aug-26 08:31N 52°06' E 004°16'0 0.0
2015-Aug-26 07:31N 52°06' E 004°16'0 0.0
2015-Aug-26 06:31N 52°06' E 004°16'0 0.0
2015-Aug-26 05:31N 52°06' E 004°16'0 0.0
2015-Aug-26 04:31N 52°06' E 004°16'0 0.0
2015-Aug-26 03:31N 52°06' E 004°16'0 0.0
2015-Aug-26 02:31N 52°06' E 004°16'0 0.0
2015-Aug-26 01:31N 52°06' E 004°16'0 0.0
2015-Aug-26 00:31N 52°06' E 004°16'0 0.0
2015-Aug-25 23:31N 52°06' E 004°16'0 0.0
2015-Aug-25 22:31N 52°06' E 004°16'0 0.0
2015-Aug-25 21:31N 52°06' E 004°16'0 0.0
2015-Aug-25 20:31N 52°06' E 004°16'0 0.0
2015-Aug-25 19:31N 52°06' E 004°16'0 0.0
2015-Aug-25 18:31N 52°06' E 004°16'0 0.0
2015-Aug-25 17:31N 52°06' E 004°16'0 0.0
2015-Aug-25 16:31N 52°06' E 004°16'0 0.0
2015-Aug-25 15:31N 52°06' E 004°16'0 0.0
2015-Aug-25 14:31N 52°06' E 004°16'0 0.0
2015-Aug-25 13:31N 52°06' E 004°16'0 0.0
2015-Aug-25 12:31N 52°06' E 004°16'0 0.0
2015-Aug-25 11:31N 52°06' E 004°16'0 0.0
2015-Aug-25 10:31N 52°06' E 004°16'0 0.0
2015-Aug-25 09:31N 52°06' E 004°16'0 0.0
2015-Aug-25 08:31N 52°06' E 004°16'0 0.0
2015-Aug-25 07:31N 52°06' E 004°16'0 0.0
2015-Aug-25 06:31N 52°06' E 004°16'0 0.0
2015-Aug-25 05:31N 52°06' E 004°16'0 0.0
2015-Aug-25 04:31N 52°06' E 004°16'0 0.0
2015-Aug-25 03:31N 52°06' E 004°16'0 0.0
2015-Aug-25 02:31N 52°06' E 004°16'0 0.0
2015-Aug-25 01:31N 52°06' E 004°16'0 0.0
2015-Aug-25 00:31N 52°06' E 004°16'0 0.0
2015-Aug-24 23:31N 52°06' E 004°16'0 0.0
2015-Aug-24 22:31N 52°06' E 004°16'0 0.0
2015-Aug-24 21:31N 52°06' E 004°16'0 0.0
2015-Aug-24 20:31N 52°06' E 004°16'0 0.0
2015-Aug-24 19:31N 52°06' E 004°16'0 0.0
2015-Aug-24 18:32N 52°06' E 004°16'0 0.0
2015-Aug-24 17:31N 52°06' E 004°16'0 0.0
2015-Aug-24 16:31N 52°06' E 004°16'0 0.0
2015-Aug-24 15:33N 52°06' E 004°16'4 3.5
2015-Aug-24 14:33N 52°09' E 004°16'7 7.4
2015-Aug-24 13:33N 52°16' E 004°22'8 7.8
2015-Aug-24 12:33N 52°23' E 004°28'6 6.2
2015-Aug-24 11:33N 52°28' E 004°34'4 4.3
2015-Aug-24 10:34N 52°27' E 004°41'7 7.2
2015-Aug-24 09:33N 52°25' E 004°52'0 0.1
2015-Aug-24 08:32N 52°25' E 004°52'0 0.0
2015-Aug-24 07:32N 52°25' E 004°52'0 0.0
2015-Aug-24 06:32N 52°25' E 004°52'0 0.0
2015-Aug-24 05:32N 52°25' E 004°52'0 0.0
2015-Aug-24 04:29N 52°25' E 004°52'0 0.0
2015-Aug-24 03:32N 52°25' E 004°52'0 0.0
2015-Aug-24 02:32N 52°25' E 004°52'0 0.0
2015-Aug-24 01:32N 52°25' E 004°52'0 0.0
2015-Aug-24 00:32N 52°25' E 004°52'0 0.0
2015-Aug-23 23:32N 52°25' E 004°52'0 0.0
2015-Aug-23 22:32N 52°25' E 004°52'0 0.0
2015-Aug-23 21:32N 52°25' E 004°52'0 0.0
2015-Aug-23 20:32N 52°25' E 004°52'0 0.0
2015-Aug-23 19:32N 52°25' E 004°52'0 0.0
2015-Aug-23 18:32N 52°25' E 004°52'2 2.0
2015-Aug-23 17:34N 52°23' E 004°54'1 1.2
2015-Aug-23 16:34N 52°24' E 004°53'2 1.6
2015-Aug-23 15:33N 52°23' E 004°54'0 0.1
2015-Aug-23 14:34N 52°23' E 004°54'0 0.1
2015-Aug-23 13:31N 52°23' E 004°54'0 0.1
2015-Aug-23 12:34N 52°23' E 004°54'2 2.0
2015-Aug-23 11:31N 52°25' E 004°52'0 0.0
2015-Aug-23 10:31N 52°25' E 004°52'3 2.8
2015-Aug-23 09:33N 52°23' E 004°55'0 0.3
2015-Aug-23 08:34N 52°23' E 004°55'3 2.9
2015-Aug-23 07:33N 52°25' E 004°52'0 0.2
2015-Aug-23 06:33N 52°25' E 004°52'0 0.0
2015-Aug-23 05:34N 52°25' E 004°52'0 0.0
2015-Aug-23 04:33N 52°25' E 004°52'0 0.0
2015-Aug-23 03:34N 52°25' E 004°52'0 0.0
2015-Aug-23 02:33N 52°25' E 004°52'0 0.0
2015-Aug-23 01:33N 52°25' E 004°52'0 0.0
2015-Aug-23 00:33N 52°25' E 004°52'3 3.4
2015-Aug-22 23:34N 52°25' E 004°46'4 4.0
2015-Aug-22 22:33N 52°24' E 004°53'2 2.4
2015-Aug-22 21:33N 52°23' E 004°55'0 0.0
2015-Aug-22 20:34N 52°23' E 004°55'0 0.3
2015-Aug-22 19:33N 52°23' E 004°56'0 0.3
2015-Aug-22 18:33N 52°23' E 004°55'0 0.0
2015-Aug-22 17:31N 52°23' E 004°55'0 0.0
2015-Aug-22 16:31N 52°23' E 004°55'0 0.0
2015-Aug-22 15:31N 52°23' E 004°55'0 0.0
2015-Aug-22 14:32N 52°23' E 004°55'0 0.3
2015-Aug-22 13:34N 52°23' E 004°55'1 0.7
2015-Aug-22 12:34N 52°23' E 004°54'1 1.1
2015-Aug-22 11:31N 52°23' E 004°56'1 1.1
2015-Aug-22 10:31N 52°23' E 004°54'1 1.5
2015-Aug-22 09:33N 52°24' E 004°53'1 0.8
2015-Aug-22 08:31N 52°25' E 004°52'0 0.0
2015-Aug-22 07:31N 52°25' E 004°52'0 0.0
2015-Aug-22 06:31N 52°25' E 004°52'0 0.0
2015-Aug-22 05:31N 52°25' E 004°52'0 0.0
2015-Aug-22 04:31N 52°25' E 004°52'0 0.0
2015-Aug-22 03:31N 52°25' E 004°52'0 0.0
2015-Aug-22 02:31N 52°25' E 004°52'0 0.0
2015-Aug-22 01:31N 52°25' E 004°52'0 0.0
2015-Aug-22 00:31N 52°25' E 004°52'0 0.0
2015-Aug-21 23:33N 52°25' E 004°52'3 2.9
2015-Aug-21 22:34N 52°23' E 004°55'0 0.0
2015-Aug-21 21:33N 52°23' E 004°55'0 0.0
2015-Aug-21 20:33N 52°23' E 004°55'0 0.2
2015-Aug-21 19:34N 52°23' E 004°55'0 0.2
2015-Aug-21 18:34N 52°23' E 004°55'0 0.3
2015-Aug-21 17:33N 52°23' E 004°55'0 0.0
2015-Aug-21 16:33N 52°23' E 004°55'0 0.0
2015-Aug-21 15:33N 52°23' E 004°55'0 0.0
2015-Aug-21 14:33N 52°23' E 004°55'0 0.0
2015-Aug-21 13:33N 52°23' E 004°55'1 1.0
2015-Aug-21 12:33N 52°23' E 004°54'1 0.9
2015-Aug-21 11:34N 52°23' E 004°55'0 0.4
2015-Aug-21 10:33N 52°23' E 004°55'2 2.0
2015-Aug-21 09:34N 52°24' E 004°53'1 0.7
2015-Aug-21 08:34N 52°25' E 004°52'0 0.0
2015-Aug-21 07:34N 52°25' E 004°52'0 0.0
2015-Aug-21 06:34N 52°25' E 004°52'0 0.0
2015-Aug-21 05:34N 52°25' E 004°52'0 0.0
2015-Aug-21 04:34N 52°25' E 004°52'0 0.0
2015-Aug-21 03:33N 52°25' E 004°52'0 0.0
2015-Aug-21 02:33N 52°25' E 004°52'0 0.0
2015-Aug-21 01:33N 52°25' E 004°52'0 0.0
2015-Aug-21 00:33N 52°25' E 004°52'0 0.0
2015-Aug-20 23:34N 52°25' E 004°52'0 0.1
2015-Aug-20 22:34N 52°24' E 004°52'3 2.9
2015-Aug-20 21:34N 52°23' E 004°55'0 0.2
2015-Aug-20 20:33N 52°23' E 004°56'0 0.5
2015-Aug-20 19:34N 52°23' E 004°55'0 0.1
2015-Aug-20 18:33N 52°23' E 004°55'0 0.5
2015-Aug-20 17:33N 52°23' E 004°55'0 0.0
2015-Aug-20 16:33N 52°23' E 004°55'0 0.0
2015-Aug-20 15:33N 52°23' E 004°55'0 0.5
2015-Aug-20 14:33N 52°23' E 004°56'1 0.6
2015-Aug-20 13:33N 52°23' E 004°57'2 2.0
2015-Aug-20 12:34N 52°23' E 004°54'1 0.9
2015-Aug-20 11:34N 52°23' E 004°55'1 0.8
2015-Aug-20 10:34N 52°23' E 004°54'2 2.2
2015-Aug-20 09:34N 52°25' E 004°52'0 0.3
2015-Aug-20 08:33N 52°25' E 004°52'0 0.0
2015-Aug-20 07:33N 52°25' E 004°52'0 0.0
2015-Aug-20 06:33N 52°25' E 004°52'0 0.0
2015-Aug-20 05:33N 52°25' E 004°52'0 0.0
2015-Aug-20 04:33N 52°25' E 004°52'0 0.0
2015-Aug-20 03:33N 52°25' E 004°52'0 0.0
2015-Aug-20 02:33N 52°25' E 004°52'0 0.0
2015-Aug-20 01:33N 52°25' E 004°52'0 0.0
2015-Aug-20 00:33N 52°25' E 004°52'0 0.0
2015-Aug-19 23:33N 52°25' E 004°52'0 0.0
2015-Aug-19 22:33N 52°25' E 004°52'0 0.0
2015-Aug-19 21:33N 52°25' E 004°52'0 0.0
2015-Aug-19 20:33N 52°25' E 004°52'0 0.0
2015-Aug-19 19:33N 52°25' E 004°52'0 0.0
2015-Aug-19 18:33N 52°25' E 004°52'0 0.0
2015-Aug-19 17:33N 52°25' E 004°52'0 0.3
2015-Aug-19 16:34N 52°25' E 004°52'1 0.7
2015-Aug-19 15:33N 52°24' E 004°53'0 0.0
2015-Aug-19 14:33N 52°24' E 004°53'1 1.1
2015-Aug-19 13:34N 52°25' E 004°51'4 3.5
2015-Aug-19 12:34N 52°26' E 004°46'2 2.4
2015-Aug-19 11:33N 52°26' E 004°42'2 1.9
2015-Aug-19 10:34N 52°28' E 004°40'1 1.3
2015-Aug-19 09:33N 52°28' E 004°38'0 0.0
2015-Aug-19 08:33N 52°28' E 004°38'3 2.8
2015-Aug-19 07:33N 52°27' E 004°42'4 4.4
2015-Aug-19 06:34N 52°25' E 004°49'2 1.9
2015-Aug-19 05:32N 52°25' E 004°52'0 0.0
2015-Aug-19 04:32N 52°25' E 004°52'0 0.0
2015-Aug-19 03:32N 52°25' E 004°52'0 0.0
2015-Aug-19 02:32N 52°25' E 004°52'0 0.0
2015-Aug-19 01:32N 52°25' E 004°52'0 0.0
2015-Aug-19 00:32N 52°25' E 004°52'0 0.0
2015-Aug-18 23:32N 52°25' E 004°52'0 0.0
2015-Aug-18 22:32N 52°25' E 004°52'0 0.0
2015-Aug-18 21:32N 52°25' E 004°52'0 0.0
2015-Aug-18 20:32N 52°25' E 004°52'0 0.0
2015-Aug-18 19:32N 52°25' E 004°52'0 0.0
2015-Aug-18 18:32N 52°25' E 004°52'0 0.0
2015-Aug-18 17:32N 52°25' E 004°52'0 0.0
2015-Aug-18 16:32N 52°25' E 004°52'0 0.0
2015-Aug-18 15:32N 52°25' E 004°52'0 0.0
2015-Aug-18 14:32N 52°25' E 004°52'0 0.0
2015-Aug-18 13:32N 52°25' E 004°52'0 0.0
2015-Aug-18 12:32N 52°25' E 004°52'2 2.1
2015-Aug-18 11:34N 52°23' E 004°54'3 2.9
2015-Aug-18 10:34N 52°25' E 004°50'5 5.2
2015-Aug-18 09:33N 52°26' E 004°42'4 4.3
2015-Aug-18 08:34N 52°28' E 004°35'4 3.7
2015-Aug-18 07:33N 52°30' E 004°30'6 6.0
2015-Aug-18 06:33N 52°36' E 004°31'6 5.7
2015-Aug-18 05:33N 52°42' E 004°31'5 5.3
2015-Aug-18 04:33N 52°47' E 004°31'2 5.1
2015-Aug-18 04:11N 52°49' E 004°31'0 5.3
2015-Aug-18 04:08N 52°49' E 004°31'4 6.1
2015-Aug-18 03:33N 52°53' E 004°32'7 6.7
2015-Aug-18 02:33N 52°59' E 004°34'16 8.2
2015-Aug-18 00:33N 53°14' E 004°46'8 7.8
2015-Aug-17 23:34N 53°20' E 004°55'7 6.6
2015-Aug-17 22:34N 53°24' E 005°03'6 6.1
2015-Aug-17 21:34N 53°27' E 005°12'5 5.5
2015-Aug-17 20:33N 53°29' E 005°21'  
Track history (hours):
 
Tides and Currents Weather Stations Pressure Air Temp Water Temp Dewpoint Dewpoint Depression Visibility Wind Speed Wind Dir Waves Ship Positions

Atlantis (Netherlands)

Ship's website: http://www.tallship-company.com/artemis/gb_atlantis.htm

Last reported at 2015-Aug-27 20:33 UTC. Time now 2015-Aug-27 21:31 UTC.
Position N 51°12' E 001°40'.

Length 40 m; draft 4.9 m.

Type: Sailing vessel. MMSI: 246253000.

Date/timePositionNaut miles runAvg speedWind from/ knotsBaromVisibWave heightAir tempDewpointWater temp
2015-Aug-27 20:33N 51°12' E 001°40'3 3.2
2015-Aug-27 19:33N 51°14' E 001°44'5 5.1
2015-Aug-27 18:33N 51°18' E 001°49'6 6.1
2015-Aug-27 17:33N 51°24' E 001°52'6 5.9
2015-Aug-27 16:33N 51°29' E 001°56'5 5.4
2015-Aug-27 15:33N 51°35' E 001°58'19 3.7
2015-Aug-27 10:31N 51°52' E 002°06'4 4.2
2015-Aug-27 09:33N 51°56' E 002°08'61 4.0
2015-Aug-26 18:17N 52°05' E 003°46'2 3.4
2015-Aug-26 17:33N 52°03' E 003°50'7 7.0
2015-Aug-26 16:33N 52°05' E 004°01'7 7.4
2015-Aug-26 15:33N 52°06' E 004°13'2 1.8
2015-Aug-26 14:31N 52°06' E 004°16'0 0.0
2015-Aug-26 13:31N 52°06' E 004°16'0 0.0
2015-Aug-26 12:31N 52°06' E 004°16'0 0.0
2015-Aug-26 11:31N 52°06' E 004°16'0 0.0
2015-Aug-26 10:31N 52°06' E 004°16'0 0.0
2015-Aug-26 09:31N 52°06' E 004°16'0 0.0
2015-Aug-26 08:31N 52°06' E 004°16'0 0.0
2015-Aug-26 07:31N 52°06' E 004°16'0 0.0
2015-Aug-26 06:31N 52°06' E 004°16'0 0.0
2015-Aug-26 05:31N 52°06' E 004°16'0 0.0
2015-Aug-26 04:31N 52°06' E 004°16'0 0.0
2015-Aug-26 03:31N 52°06' E 004°16'0 0.0
2015-Aug-26 02:31N 52°06' E 004°16'0 0.0
2015-Aug-26 01:31N 52°06' E 004°16'0 0.0
2015-Aug-26 00:31N 52°06' E 004°16'0 0.0
2015-Aug-25 23:31N 52°06' E 004°16'0 0.0
2015-Aug-25 22:31N 52°06' E 004°16'0 0.0
2015-Aug-25 21:31N 52°06' E 004°16'0 0.0
2015-Aug-25 20:31N 52°06' E 004°16'0 0.0
2015-Aug-25 19:31N 52°06' E 004°16'0 0.0
2015-Aug-25 18:31N 52°06' E 004°16'0 0.0
2015-Aug-25 17:31N 52°06' E 004°16'0 0.0
2015-Aug-25 16:31N 52°06' E 004°16'0 0.0
2015-Aug-25 15:31N 52°06' E 004°16'0 0.0
2015-Aug-25 14:31N 52°06' E 004°16'0 0.0
2015-Aug-25 13:31N 52°06' E 004°16'0 0.0
2015-Aug-25 12:31N 52°06' E 004°16'0 0.0
2015-Aug-25 11:31N 52°06' E 004°16'0 0.0
2015-Aug-25 10:31N 52°06' E 004°16'0 0.0
2015-Aug-25 09:31N 52°06' E 004°16'0 0.0
2015-Aug-25 08:31N 52°06' E 004°16'0 0.0
2015-Aug-25 07:31N 52°06' E 004°16'0 0.0
2015-Aug-25 06:31N 52°06' E 004°16'0 0.0
2015-Aug-25 05:31N 52°06' E 004°16'0 0.0
2015-Aug-25 04:31N 52°06' E 004°16'0 0.0
2015-Aug-25 03:31N 52°06' E 004°16'0 0.0
2015-Aug-25 02:31N 52°06' E 004°16'0 0.0
2015-Aug-25 01:31N 52°06' E 004°16'0 0.0
2015-Aug-25 00:31N 52°06' E 004°16'0 0.0
2015-Aug-24 23:31N 52°06' E 004°16'0 0.0
2015-Aug-24 22:31N 52°06' E 004°16'0 0.0
2015-Aug-24 21:31N 52°06' E 004°16'0 0.0
2015-Aug-24 20:31N 52°06' E 004°16'0 0.0
2015-Aug-24 19:31N 52°06' E 004°16'0 0.0
2015-Aug-24 18:32N 52°06' E 004°16'0 0.0
2015-Aug-24 17:31N 52°06' E 004°16'0 0.0
2015-Aug-24 16:31N 52°06' E 004°16'0 0.0
2015-Aug-24 15:33N 52°06' E 004°16'4 3.5
2015-Aug-24 14:33N 52°09' E 004°16'7 7.4
2015-Aug-24 13:33N 52°16' E 004°22'8 7.8
2015-Aug-24 12:33N 52°23' E 004°28'6 6.2
2015-Aug-24 11:33N 52°28' E 004°34'4 4.3
2015-Aug-24 10:34N 52°27' E 004°41'7 7.2
2015-Aug-24 09:33N 52°25' E 004°52'0 0.1
2015-Aug-24 08:32N 52°25' E 004°52'0 0.0
2015-Aug-24 07:32N 52°25' E 004°52'0 0.0
2015-Aug-24 06:32N 52°25' E 004°52'0 0.0
2015-Aug-24 05:32N 52°25' E 004°52'0 0.0
2015-Aug-24 04:29N 52°25' E 004°52'0 0.0
2015-Aug-24 03:32N 52°25' E 004°52'0 0.0
2015-Aug-24 02:32N 52°25' E 004°52'0 0.0
2015-Aug-24 01:32N 52°25' E 004°52'0 0.0
2015-Aug-24 00:32N 52°25' E 004°52'0 0.0
2015-Aug-23 23:32N 52°25' E 004°52'0 0.0
2015-Aug-23 22:32N 52°25' E 004°52'0 0.0
2015-Aug-23 21:32N 52°25' E 004°52'0 0.0
2015-Aug-23 20:32N 52°25' E 004°52'0 0.0
2015-Aug-23 19:32N 52°25' E 004°52'0 0.0
2015-Aug-23 18:32N 52°25' E 004°52'2 2.0
2015-Aug-23 17:34N 52°23' E 004°54'1 1.2
2015-Aug-23 16:34N 52°24' E 004°53'2 1.6
2015-Aug-23 15:33N 52°23' E 004°54'0 0.1
2015-Aug-23 14:34N 52°23' E 004°54'0 0.1
2015-Aug-23 13:31N 52°23' E 004°54'0 0.1
2015-Aug-23 12:34N 52°23' E 004°54'2 2.0
2015-Aug-23 11:31N 52°25' E 004°52'0 0.0
2015-Aug-23 10:31N 52°25' E 004°52'3 2.8
2015-Aug-23 09:33N 52°23' E 004°55'0 0.3
2015-Aug-23 08:34N 52°23' E 004°55'3 2.9
2015-Aug-23 07:33N 52°25' E 004°52'0 0.2
2015-Aug-23 06:33N 52°25' E 004°52'0 0.0
2015-Aug-23 05:34N 52°25' E 004°52'0 0.0
2015-Aug-23 04:33N 52°25' E 004°52'0 0.0
2015-Aug-23 03:34N 52°25' E 004°52'0 0.0
2015-Aug-23 02:33N 52°25' E 004°52'0 0.0
2015-Aug-23 01:33N 52°25' E 004°52'0 0.0
2015-Aug-23 00:33N 52°25' E 004°52'3 3.4
2015-Aug-22 23:34N 52°25' E 004°46'4 4.0
2015-Aug-22 22:33N 52°24' E 004°53'2 2.4
2015-Aug-22 21:33N 52°23' E 004°55'0 0.0
2015-Aug-22 20:34N 52°23' E 004°55'0 0.3
2015-Aug-22 19:33N 52°23' E 004°56'0 0.3
2015-Aug-22 18:33N 52°23' E 004°55'0 0.0
2015-Aug-22 17:31N 52°23' E 004°55'0 0.0
2015-Aug-22 16:31N 52°23' E 004°55'0 0.0
2015-Aug-22 15:31N 52°23' E 004°55'0 0.0
2015-Aug-22 14:32N 52°23' E 004°55'0 0.3
2015-Aug-22 13:34N 52°23' E 004°55'1 0.7
2015-Aug-22 12:34N 52°23' E 004°54'1 1.1
2015-Aug-22 11:31N 52°23' E 004°56'1 1.1
2015-Aug-22 10:31N 52°23' E 004°54'1 1.5
2015-Aug-22 09:33N 52°24' E 004°53'1 0.8
2015-Aug-22 08:31N 52°25' E 004°52'0 0.0
2015-Aug-22 07:31N 52°25' E 004°52'0 0.0
2015-Aug-22 06:31N 52°25' E 004°52'0 0.0
2015-Aug-22 05:31N 52°25' E 004°52'0 0.0
2015-Aug-22 04:31N 52°25' E 004°52'0 0.0
2015-Aug-22 03:31N 52°25' E 004°52'0 0.0
2015-Aug-22 02:31N 52°25' E 004°52'0 0.0
2015-Aug-22 01:31N 52°25' E 004°52'0 0.0
2015-Aug-22 00:31N 52°25' E 004°52'0 0.0
2015-Aug-21 23:33N 52°25' E 004°52'3 2.9
2015-Aug-21 22:34N 52°23' E 004°55'0 0.0
2015-Aug-21 21:33N 52°23' E 004°55'0 0.0
2015-Aug-21 20:33N 52°23' E 004°55'0 0.2
2015-Aug-21 19:34N 52°23' E 004°55'0 0.2
2015-Aug-21 18:34N 52°23' E 004°55'0 0.3
2015-Aug-21 17:33N 52°23' E 004°55'0 0.0
2015-Aug-21 16:33N 52°23' E 004°55'0 0.0
2015-Aug-21 15:33N 52°23' E 004°55'0 0.0
2015-Aug-21 14:33N 52°23' E 004°55'0 0.0
2015-Aug-21 13:33N 52°23' E 004°55'1 1.0
2015-Aug-21 12:33N 52°23' E 004°54'1 0.9
2015-Aug-21 11:34N 52°23' E 004°55'0 0.4
2015-Aug-21 10:33N 52°23' E 004°55'2 2.0
2015-Aug-21 09:34N 52°24' E 004°53'1 0.7
2015-Aug-21 08:34N 52°25' E 004°52'0 0.0
2015-Aug-21 07:34N 52°25' E 004°52'0 0.0
2015-Aug-21 06:34N 52°25' E 004°52'0 0.0
2015-Aug-21 05:34N 52°25' E 004°52'0 0.0
2015-Aug-21 04:34N 52°25' E 004°52'0 0.0
2015-Aug-21 03:33N 52°25' E 004°52'0 0.0
2015-Aug-21 02:33N 52°25' E 004°52'0 0.0
2015-Aug-21 01:33N 52°25' E 004°52'0 0.0
2015-Aug-21 00:33N 52°25' E 004°52'0 0.0
2015-Aug-20 23:34N 52°25' E 004°52'0 0.1
2015-Aug-20 22:34N 52°24' E 004°52'3 2.9
2015-Aug-20 21:34N 52°23' E 004°55'0 0.2
2015-Aug-20 20:33N 52°23' E 004°56'0 0.5
2015-Aug-20 19:34N 52°23' E 004°55'0 0.1
2015-Aug-20 18:33N 52°23' E 004°55'0 0.5
2015-Aug-20 17:33N 52°23' E 004°55'0 0.0
2015-Aug-20 16:33N 52°23' E 004°55'0 0.0
2015-Aug-20 15:33N 52°23' E 004°55'0 0.5
2015-Aug-20 14:33N 52°23' E 004°56'1 0.6
2015-Aug-20 13:33N 52°23' E 004°57'2 2.0
2015-Aug-20 12:34N 52°23' E 004°54'1 0.9
2015-Aug-20 11:34N 52°23' E 004°55'1 0.8
2015-Aug-20 10:34N 52°23' E 004°54'2 2.2
2015-Aug-20 09:34N 52°25' E 004°52'0 0.3
2015-Aug-20 08:33N 52°25' E 004°52'0 0.0
2015-Aug-20 07:33N 52°25' E 004°52'0 0.0
2015-Aug-20 06:33N 52°25' E 004°52'0 0.0
2015-Aug-20 05:33N 52°25' E 004°52'0 0.0
2015-Aug-20 04:33N 52°25' E 004°52'0 0.0
2015-Aug-20 03:33N 52°25' E 004°52'0 0.0
2015-Aug-20 02:33N 52°25' E 004°52'0 0.0
2015-Aug-20 01:33N 52°25' E 004°52'0 0.0
2015-Aug-20 00:33N 52°25' E 004°52'0 0.0
2015-Aug-19 23:33N 52°25' E 004°52'0 0.0
2015-Aug-19 22:33N 52°25' E 004°52'0 0.0
2015-Aug-19 21:33N 52°25' E 004°52'0 0.0
2015-Aug-19 20:33N 52°25' E 004°52'0 0.0
2015-Aug-19 19:33N 52°25' E 004°52'0 0.0
2015-Aug-19 18:33N 52°25' E 004°52'0 0.0
2015-Aug-19 17:33N 52°25' E 004°52'0 0.3
2015-Aug-19 16:34N 52°25' E 004°52'1 0.7
2015-Aug-19 15:33N 52°24' E 004°53'0 0.0
2015-Aug-19 14:33N 52°24' E 004°53'1 1.1
2015-Aug-19 13:34N 52°25' E 004°51'4 3.5
2015-Aug-19 12:34N 52°26' E 004°46'2 2.4
2015-Aug-19 11:33N 52°26' E 004°42'2 1.9
2015-Aug-19 10:34N 52°28' E 004°40'1 1.3
2015-Aug-19 09:33N 52°28' E 004°38'0 0.0
2015-Aug-19 08:33N 52°28' E 004°38'3 2.8
2015-Aug-19 07:33N 52°27' E 004°42'4 4.4
2015-Aug-19 06:34N 52°25' E 004°49'2 1.9
2015-Aug-19 05:32N 52°25' E 004°52'0 0.0
2015-Aug-19 04:32N 52°25' E 004°52'0 0.0
2015-Aug-19 03:32N 52°25' E 004°52'0 0.0
2015-Aug-19 02:32N 52°25' E 004°52'0 0.0
2015-Aug-19 01:32N 52°25' E 004°52'0 0.0
2015-Aug-19 00:32N 52°25' E 004°52'0 0.0
2015-Aug-18 23:32N 52°25' E 004°52'0 0.0
2015-Aug-18 22:32N 52°25' E 004°52'0 0.0
2015-Aug-18 21:32N 52°25' E 004°52'0 0.0
2015-Aug-18 20:32N 52°25' E 004°52'0 0.0
2015-Aug-18 19:32N 52°25' E 004°52'0 0.0
2015-Aug-18 18:32N 52°25' E 004°52'0 0.0
2015-Aug-18 17:32N 52°25' E 004°52'0 0.0
2015-Aug-18 16:32N 52°25' E 004°52'0 0.0
2015-Aug-18 15:32N 52°25' E 004°52'0 0.0
2015-Aug-18 14:32N 52°25' E 004°52'0 0.0
2015-Aug-18 13:32N 52°25' E 004°52'0 0.0
2015-Aug-18 12:32N 52°25' E 004°52'2 2.1
2015-Aug-18 11:34N 52°23' E 004°54'3 2.9
2015-Aug-18 10:34N 52°25' E 004°50'5 5.2
2015-Aug-18 09:33N 52°26' E 004°42'4 4.3
2015-Aug-18 08:34N 52°28' E 004°35'4 3.7
2015-Aug-18 07:33N 52°30' E 004°30'6 6.0
2015-Aug-18 06:33N 52°36' E 004°31'6 5.7
2015-Aug-18 05:33N 52°42' E 004°31'5 5.3
2015-Aug-18 04:33N 52°47' E 004°31'2 5.1
2015-Aug-18 04:11N 52°49' E 004°31'0 5.3
2015-Aug-18 04:08N 52°49' E 004°31'4 6.1
2015-Aug-18 03:33N 52°53' E 004°32'7 6.7
2015-Aug-18 02:33N 52°59' E 004°34'16 8.2
2015-Aug-18 00:33N 53°14' E 004°46'8 7.8
2015-Aug-17 23:34N 53°20' E 004°55'7 6.6
2015-Aug-17 22:34N 53°24' E 005°03'6 6.1
2015-Aug-17 21:34N 53°27' E 005°12'5 5.5
2015-Aug-17 20:33N 53°29' E 005°21'  

Dump ship's entire track history